createdAt,value
2023-05-01T00:00:39.438Z,19.80
2023-05-01T00:03:11.364Z,19.82
2023-05-01T00:05:43.212Z,19.83
2023-05-01T00:08:15.064Z,19.84
2023-05-01T00:10:46.670Z,19.90
2023-05-01T00:13:23.325Z,19.93
2023-05-01T00:15:55.578Z,20.00
2023-05-01T00:18:26.682Z,20.07
2023-05-01T00:20:57.901Z,20.24
2023-05-01T00:23:29.437Z,20.36
2023-05-01T00:26:00.618Z,20.31
2023-05-01T00:28:31.774Z,20.32
2023-05-01T00:31:03.360Z,20.28
2023-05-01T00:33:34.448Z,20.33
2023-05-01T00:36:06.045Z,20.34
2023-05-01T00:38:38.022Z,20.35
2023-05-01T00:41:09.435Z,20.21
2023-05-01T00:43:40.767Z,20.26
2023-05-01T00:46:13.210Z,20.11
2023-05-01T00:48:45.199Z,19.99
2023-05-01T00:51:17.165Z,19.87
2023-05-01T00:53:48.480Z,19.88
2023-05-01T00:56:19.690Z,19.94
2023-05-01T00:58:55.984Z,19.79
2023-05-01T01:01:28.376Z,19.68
2023-05-01T01:03:59.819Z,19.61
2023-05-01T01:06:33.097Z,19.66
2023-05-01T01:09:16.038Z,19.62
2023-05-01T01:12:16.012Z,19.60
2023-05-01T01:14:52.559Z,19.62
2023-05-01T01:17:41.340Z,19.70
2023-05-01T01:20:42.551Z,19.70
2023-05-01T01:23:32.425Z,19.64
2023-05-01T01:26:40.179Z,19.70
2023-05-01T01:29:32.930Z,19.78
2023-05-01T01:32:10.056Z,19.71
2023-05-01T01:34:51.687Z,19.71
2023-05-01T01:37:24.080Z,19.76
2023-05-01T01:40:13.998Z,19.89
2023-05-01T01:42:48.606Z,20.00
2023-05-01T01:45:25.194Z,19.93
2023-05-01T01:47:57.341Z,19.97
2023-05-01T01:50:29.694Z,19.92
2023-05-01T01:53:03.201Z,19.92
2023-05-01T01:55:36.612Z,20.07
2023-05-01T01:58:08.729Z,20.20
2023-05-01T02:00:42.569Z,20.25
2023-05-01T02:03:15.907Z,20.42
2023-05-01T02:05:48.379Z,20.44
2023-05-01T02:08:20.871Z,20.50
2023-05-01T02:10:53.083Z,20.62
2023-05-01T02:13:26.114Z,20.61
2023-05-01T02:16:02.312Z,20.78
2023-05-01T02:18:34.312Z,20.92
2023-05-01T02:21:06.898Z,20.81
2023-05-01T02:23:41.121Z,20.83
2023-05-01T02:26:15.900Z,20.84
2023-05-01T02:28:48.364Z,20.80
2023-05-01T02:31:19.878Z,20.93
2023-05-01T02:33:52.675Z,20.90
2023-05-01T02:36:24.521Z,21.02
2023-05-01T02:38:56.966Z,20.95
2023-05-01T02:41:29.615Z,21.00
2023-05-01T02:44:05.972Z,21.03
2023-05-01T02:46:39.233Z,21.04
2023-05-01T02:49:10.376Z,20.91
2023-05-01T02:51:42.399Z,20.94
2023-05-01T02:54:14.051Z,20.78
2023-05-01T02:56:46.691Z,20.78
2023-05-01T02:59:17.426Z,20.84
2023-05-01T03:01:49.071Z,20.87
2023-05-01T03:04:19.973Z,20.85
2023-05-01T03:06:51.342Z,20.87
2023-05-01T03:09:22.747Z,20.81
2023-05-01T03:11:54.221Z,20.75
2023-05-01T03:14:25.421Z,20.85
2023-05-01T03:16:57.315Z,20.91
2023-05-01T03:19:28.611Z,20.83
2023-05-01T03:22:00.886Z,20.81
2023-05-01T03:24:32.325Z,20.90
2023-05-01T03:27:04.074Z,21.15
2023-05-01T03:29:36.543Z,21.13
2023-05-01T03:32:08.342Z,21.28
2023-05-01T03:34:40.496Z,21.22
2023-05-01T03:37:11.941Z,21.16
2023-05-01T03:39:43.616Z,21.16
2023-05-01T03:42:44.486Z,21.17
2023-05-01T03:45:23.171Z,21.11
2023-05-01T03:47:54.822Z,21.09
2023-05-01T03:50:26.386Z,21.07
2023-05-01T03:52:58.032Z,21.06
2023-05-01T03:55:29.028Z,21.06
2023-05-01T03:58:00.386Z,20.98
2023-05-01T04:00:32.836Z,21.00
2023-05-01T04:03:04.271Z,20.97
2023-05-01T04:05:38.092Z,21.01
2023-05-01T04:08:10.404Z,21.00
2023-05-01T04:10:41.590Z,21.03
2023-05-01T04:13:16.006Z,21.15
2023-05-01T04:15:48.161Z,21.06
2023-05-01T04:18:19.949Z,21.06
2023-05-01T04:20:51.573Z,21.03
2023-05-01T04:23:24.735Z,21.08
2023-05-01T04:25:58.950Z,21.07
2023-05-01T04:28:32.488Z,20.96
2023-05-01T04:31:03.886Z,21.07
2023-05-01T04:33:35.490Z,21.00
2023-05-01T04:36:06.430Z,21.03
2023-05-01T04:38:38.771Z,21.08
2023-05-01T04:41:10.907Z,21.04
2023-05-01T04:43:43.005Z,21.09
2023-05-01T04:46:14.027Z,21.08
2023-05-01T04:48:45.702Z,21.07
2023-05-01T04:51:17.291Z,21.10
2023-05-01T04:53:48.480Z,21.10
2023-05-01T04:56:28.063Z,21.07
2023-05-01T04:59:04.349Z,21.03
2023-05-01T05:01:35.278Z,21.05
2023-05-01T05:04:07.680Z,20.99
2023-05-01T05:06:39.123Z,21.02
2023-05-01T05:09:16.974Z,21.02
2023-05-01T05:11:50.009Z,20.93
2023-05-01T05:14:25.030Z,20.85
2023-05-01T05:16:56.370Z,20.81
2023-05-01T05:19:30.125Z,20.72
2023-05-01T05:22:04.681Z,20.70
2023-05-01T05:24:43.769Z,20.71
2023-05-01T05:27:17.600Z,20.70
2023-05-01T05:29:48.940Z,20.71
2023-05-01T05:32:20.550Z,20.70
2023-05-01T05:34:53.228Z,20.73
2023-05-01T05:37:26.878Z,20.70
2023-05-01T05:39:59.050Z,20.61
2023-05-01T05:42:33.944Z,20.56
2023-05-01T05:45:12.338Z,20.56
2023-05-01T05:47:44.069Z,20.48
2023-05-01T05:50:15.543Z,20.53
2023-05-01T05:52:49.022Z,20.50
2023-05-01T05:55:20.008Z,20.46
2023-05-01T05:58:10.921Z,20.55
2023-05-01T06:00:43.245Z,20.49
2023-05-01T06:03:15.049Z,20.48
2023-05-01T06:05:47.438Z,20.48
2023-05-01T06:08:20.424Z,20.46
2023-05-01T06:10:52.136Z,20.45
2023-05-01T06:13:23.251Z,20.43
2023-05-01T06:15:54.763Z,20.44
2023-05-01T06:18:25.509Z,20.42
2023-05-01T06:20:56.682Z,20.43
2023-05-01T06:23:28.061Z,20.35
2023-05-01T06:26:19.393Z,20.34
2023-05-01T06:28:50.561Z,20.38
2023-05-01T06:31:22.381Z,20.36
2023-05-01T06:33:57.664Z,20.34
2023-05-01T06:36:37.448Z,20.35
2023-05-01T06:39:09.061Z,20.31
2023-05-01T06:41:40.546Z,20.29
2023-05-01T06:44:11.577Z,20.33
2023-05-01T06:46:43.609Z,20.35
2023-05-01T06:49:16.701Z,20.34
2023-05-01T06:51:49.289Z,20.28
2023-05-01T06:54:20.895Z,20.29
2023-05-01T06:56:52.213Z,20.26
2023-05-01T06:59:23.632Z,20.26
2023-05-01T07:01:55.349Z,20.26
2023-05-01T07:04:26.985Z,20.27
2023-05-01T07:06:57.977Z,20.25
2023-05-01T07:09:28.871Z,20.21
2023-05-01T07:12:00.886Z,20.20
2023-05-01T07:14:32.587Z,20.13
2023-05-01T07:17:03.986Z,20.05
2023-05-01T07:19:35.539Z,19.93
2023-05-01T07:22:07.368Z,19.93
2023-05-01T07:24:38.629Z,19.91
2023-05-01T07:27:10.735Z,19.93
2023-05-01T07:29:42.276Z,19.89
2023-05-01T07:32:13.698Z,19.88
2023-05-01T07:34:44.819Z,19.87
2023-05-01T07:37:15.856Z,19.85
2023-05-01T07:39:47.412Z,19.84
2023-05-01T07:42:18.084Z,19.80
2023-05-01T07:44:49.707Z,19.73
2023-05-01T07:47:21.752Z,19.67
2023-05-01T07:49:53.322Z,19.73
2023-05-01T07:52:24.632Z,19.73
2023-05-01T07:54:55.799Z,19.69
2023-05-01T07:57:27.385Z,19.63
2023-05-01T07:59:58.991Z,19.67
2023-05-01T08:02:30.642Z,19.61
2023-05-01T08:05:02.322Z,19.59
2023-05-01T08:07:33.938Z,19.49
2023-05-01T08:10:05.798Z,19.55
2023-05-01T08:12:36.699Z,19.54
2023-05-01T08:15:09.102Z,19.50
2023-05-01T08:17:40.826Z,19.42
2023-05-01T08:20:13.424Z,19.49
2023-05-01T08:22:45.266Z,19.48
2023-05-01T08:25:16.529Z,19.47
2023-05-01T08:27:47.831Z,19.43
2023-05-01T08:30:18.878Z,19.41
2023-05-01T08:32:50.636Z,19.42
2023-05-01T08:35:22.262Z,19.41
2023-05-01T08:37:53.181Z,19.39
2023-05-01T08:40:26.118Z,19.39
2023-05-01T08:42:57.560Z,19.36
2023-05-01T08:45:32.653Z,19.32
2023-05-01T08:48:13.480Z,19.32
2023-05-01T08:50:48.703Z,19.28
2023-05-01T08:53:21.420Z,19.27
2023-05-01T08:55:53.714Z,19.22
2023-05-01T08:58:27.850Z,19.18
2023-05-01T09:00:59.715Z,19.14
2023-05-01T09:03:34.206Z,19.11
2023-05-01T09:06:05.750Z,19.08
2023-05-01T09:08:39.029Z,19.11
2023-05-01T09:11:13.264Z,19.08
2023-05-01T09:13:44.649Z,19.08
2023-05-01T09:16:16.178Z,19.06
2023-05-01T09:18:47.578Z,19.00
2023-05-01T09:21:18.631Z,19.01
2023-05-01T09:23:53.316Z,18.98
2023-05-01T09:26:25.323Z,18.90
2023-05-01T09:28:59.539Z,18.87
2023-05-01T09:31:36.703Z,18.86
2023-05-01T09:34:09.265Z,18.88
2023-05-01T09:36:42.308Z,18.83
2023-05-01T09:39:25.368Z,18.84
2023-05-01T09:41:57.110Z,18.78
2023-05-01T09:44:28.405Z,18.77
2023-05-01T09:46:59.673Z,18.81
2023-05-01T09:50:01.384Z,18.75
2023-05-01T09:52:36.970Z,18.78
2023-05-01T09:55:18.721Z,18.78
2023-05-01T09:57:50.821Z,18.78
2023-05-01T10:00:25.345Z,18.81
2023-05-01T10:02:56.836Z,18.79
2023-05-01T10:05:28.493Z,18.79
2023-05-01T10:08:05.186Z,18.77
2023-05-01T10:10:36.526Z,18.83
2023-05-01T10:13:18.031Z,18.79
2023-05-01T10:15:49.691Z,18.79
2023-05-01T10:18:21.320Z,18.81
2023-05-01T10:20:53.096Z,18.80
2023-05-01T10:23:25.236Z,18.76
2023-05-01T10:25:56.809Z,18.80
2023-05-01T10:28:30.172Z,18.84
2023-05-01T10:31:01.623Z,18.88
2023-05-01T10:33:32.685Z,18.77
2023-05-01T10:36:05.132Z,18.83
2023-05-01T10:38:37.025Z,18.80
2023-05-01T10:41:08.156Z,18.82
2023-05-01T10:43:39.406Z,18.85
2023-05-01T10:46:10.776Z,18.85
2023-05-01T10:48:45.221Z,18.92
2023-05-01T10:51:19.605Z,18.91
2023-05-01T10:54:12.322Z,18.98
2023-05-01T10:56:44.911Z,19.04
2023-05-01T10:59:16.433Z,19.03
2023-05-01T11:01:49.120Z,19.01
2023-05-01T11:04:23.648Z,19.05
2023-05-01T11:07:19.897Z,19.02
2023-05-01T11:09:56.881Z,18.94
2023-05-01T11:13:03.750Z,18.85
2023-05-01T11:15:36.341Z,18.85
2023-05-01T11:18:08.567Z,18.78
2023-05-01T11:20:39.656Z,18.72
2023-05-01T11:23:11.023Z,18.67
2023-05-01T11:25:42.039Z,18.67
2023-05-01T11:28:13.499Z,18.64
2023-05-01T11:30:44.902Z,18.59
2023-05-01T11:33:15.935Z,18.58
2023-05-01T11:35:47.630Z,18.53
2023-05-01T11:38:22.908Z,18.45
2023-05-01T11:40:59.827Z,18.39
2023-05-01T11:43:31.485Z,18.47
2023-05-01T11:46:05.452Z,18.31
2023-05-01T11:48:37.159Z,18.39
2023-05-01T11:51:17.704Z,18.32
2023-05-01T11:54:08.741Z,18.33
2023-05-01T11:56:42.485Z,18.36
2023-05-01T11:59:18.109Z,18.31
2023-05-01T12:01:49.908Z,18.32
2023-05-01T12:04:32.045Z,18.32
2023-05-01T12:07:03.681Z,18.22
2023-05-01T12:09:35.237Z,18.22
2023-05-01T12:12:07.320Z,18.22
2023-05-01T12:14:38.818Z,18.20
2023-05-01T12:17:11.348Z,18.20
2023-05-01T12:19:51.164Z,18.29
2023-05-01T12:22:22.672Z,18.37
2023-05-01T12:24:57.165Z,18.29
2023-05-01T12:27:28.600Z,18.22
2023-05-01T12:29:59.733Z,18.15
2023-05-01T12:32:35.461Z,18.12
2023-05-01T12:35:20.921Z,18.13
2023-05-01T12:37:55.642Z,18.06
2023-05-01T12:40:27.266Z,18.14
2023-05-01T12:43:01.473Z,18.18
2023-05-01T12:45:32.687Z,18.16
2023-05-01T12:48:04.087Z,18.22
2023-05-01T12:50:38.350Z,18.21
2023-05-01T12:53:11.370Z,18.22
2023-05-01T12:55:48.148Z,18.16
2023-05-01T12:58:19.738Z,18.18
2023-05-01T13:00:54.341Z,18.16
2023-05-01T13:03:30.653Z,18.20
2023-05-01T13:06:02.892Z,18.24
2023-05-01T13:08:40.908Z,18.11
2023-05-01T13:11:17.814Z,18.20
2023-05-01T13:13:50.402Z,18.17
2023-05-01T13:16:22.693Z,18.09
2023-05-01T13:18:55.354Z,18.07
2023-05-01T13:21:28.591Z,18.11
2023-05-01T13:24:02.294Z,18.09
2023-05-01T13:26:35.151Z,18.07
2023-05-01T13:29:07.360Z,18.08
2023-05-01T13:31:39.029Z,18.05
2023-05-01T13:34:11.735Z,18.13
2023-05-01T13:36:43.354Z,18.07
2023-05-01T13:39:22.181Z,18.06
2023-05-01T13:41:53.952Z,18.09
2023-05-01T13:44:25.596Z,18.04
2023-05-01T13:46:56.758Z,18.04
2023-05-01T13:49:28.452Z,17.97
2023-05-01T13:51:59.548Z,17.96
2023-05-01T13:54:31.879Z,17.85
2023-05-01T13:57:04.332Z,17.99
2023-05-01T13:59:38.731Z,18.16
2023-05-01T14:02:30.775Z,18.12
2023-05-01T14:05:03.295Z,18.08
2023-05-01T14:07:37.210Z,18.11
2023-05-01T14:10:12.575Z,18.10
2023-05-01T14:12:44.376Z,18.02
2023-05-01T14:15:18.569Z,17.94
2023-05-01T14:17:50.550Z,17.72
2023-05-01T14:20:22.088Z,17.59
2023-05-01T14:22:53.808Z,17.54
2023-05-01T14:25:29.888Z,17.43
2023-05-01T14:28:02.533Z,17.27
2023-05-01T14:30:35.810Z,17.23
2023-05-01T14:33:12.884Z,17.16
2023-05-01T14:36:02.193Z,17.03
2023-05-01T14:38:40.465Z,16.96
2023-05-01T14:41:14.748Z,16.84
2023-05-01T14:43:46.139Z,16.89
2023-05-01T14:46:18.210Z,16.76
2023-05-01T14:48:49.578Z,16.77
2023-05-01T14:51:22.626Z,16.74
2023-05-01T14:53:55.192Z,16.59
2023-05-01T14:56:27.036Z,16.53
2023-05-01T14:58:58.958Z,16.67
2023-05-01T15:01:30.325Z,16.56
2023-05-01T15:04:03.477Z,16.55
2023-05-01T15:06:36.284Z,16.80
2023-05-01T15:09:08.074Z,16.74
2023-05-01T15:11:39.361Z,16.72
2023-05-01T15:14:11.019Z,16.54
2023-05-01T15:16:42.784Z,16.41
2023-05-01T15:19:14.436Z,16.23
2023-05-01T15:21:46.098Z,16.36
2023-05-01T15:24:17.172Z,16.22
2023-05-01T15:26:48.331Z,16.19
2023-05-01T15:29:19.753Z,16.12
2023-05-01T15:32:01.174Z,16.13
2023-05-01T15:34:39.765Z,16.04
2023-05-01T15:37:11.068Z,16.06
2023-05-01T15:39:42.950Z,16.08
2023-05-01T15:42:14.541Z,16.06
2023-05-01T15:44:46.358Z,15.98
2023-05-01T15:47:16.925Z,16.03
2023-05-01T15:49:48.325Z,16.03
2023-05-01T15:52:19.554Z,15.91
2023-05-01T15:54:51.100Z,15.85
2023-05-01T15:57:22.583Z,15.87
2023-05-01T15:59:55.345Z,15.70
2023-05-01T16:02:28.552Z,15.61
2023-05-01T16:05:00.708Z,15.75
2023-05-01T16:07:34.445Z,15.77
2023-05-01T16:10:05.463Z,15.78
2023-05-01T16:12:37.078Z,15.87
2023-05-01T16:15:09.349Z,15.70
2023-05-01T16:17:45.485Z,15.56
2023-05-01T16:20:18.507Z,15.56
2023-05-01T16:22:49.552Z,15.71
2023-05-01T16:25:20.879Z,15.69
2023-05-01T16:27:52.368Z,15.62
2023-05-01T16:30:25.979Z,15.54
2023-05-01T16:32:57.523Z,15.58
2023-05-01T16:35:30.050Z,15.59
2023-05-01T16:38:02.391Z,15.42
2023-05-01T16:40:33.769Z,15.35
2023-05-01T16:43:06.022Z,15.32
2023-05-01T16:45:39.614Z,15.41
2023-05-01T16:48:10.922Z,15.25
2023-05-01T16:50:43.032Z,15.23
2023-05-01T16:53:13.778Z,15.30
2023-05-01T16:55:44.838Z,15.24
2023-05-01T16:58:15.972Z,15.27
2023-05-01T17:00:47.871Z,15.14
2023-05-01T17:03:19.390Z,15.17
2023-05-01T17:05:51.168Z,15.22
2023-05-01T17:08:22.559Z,15.21
2023-05-01T17:10:53.823Z,15.19
2023-05-01T17:13:24.831Z,15.12
2023-05-01T17:15:56.034Z,15.19
2023-05-01T17:18:27.653Z,15.07
2023-05-01T17:20:58.988Z,15.04
2023-05-01T17:23:30.739Z,15.19
2023-05-01T17:26:02.338Z,14.93
2023-05-01T17:28:33.751Z,14.88
2023-05-01T17:31:06.539Z,14.78
2023-05-01T17:33:37.879Z,14.78
2023-05-01T17:36:09.340Z,14.81
2023-05-01T17:38:40.684Z,15.02
2023-05-01T17:41:12.398Z,14.94
2023-05-01T17:43:43.426Z,15.02
2023-05-01T17:46:15.608Z,14.93
2023-05-01T17:48:47.437Z,14.89
2023-05-01T17:51:19.608Z,14.80
2023-05-01T17:53:50.881Z,14.74
2023-05-01T17:56:23.163Z,14.69
2023-05-01T17:58:54.655Z,14.70
2023-05-01T18:01:25.745Z,14.82
2023-05-01T18:03:57.341Z,14.89
2023-05-01T18:06:28.986Z,14.86
2023-05-01T18:09:00.732Z,14.98
2023-05-01T18:11:31.746Z,15.00
2023-05-01T18:14:03.262Z,14.88
2023-05-01T18:16:34.274Z,14.91
2023-05-01T18:19:05.910Z,14.96
2023-05-01T18:21:37.254Z,14.88
2023-05-01T18:24:08.993Z,14.95
2023-05-01T18:26:40.330Z,14.97
2023-05-01T18:29:11.402Z,14.84
2023-05-01T18:31:42.895Z,14.93
2023-05-01T18:34:14.128Z,14.89
2023-05-01T18:36:45.069Z,14.85
2023-05-01T18:39:16.517Z,15.06
2023-05-01T18:41:48.293Z,15.03
2023-05-01T18:44:19.335Z,15.11
2023-05-01T18:46:50.935Z,15.19
2023-05-01T18:49:25.119Z,15.21
2023-05-01T18:51:56.873Z,15.36
2023-05-01T18:54:28.199Z,15.29
2023-05-01T18:56:59.733Z,15.15
2023-05-01T18:59:32.571Z,15.27
2023-05-01T19:02:05.419Z,15.25
2023-05-01T19:04:56.925Z,15.24
2023-05-01T19:07:29.571Z,15.12
2023-05-01T19:10:01.404Z,15.14
2023-05-01T19:12:35.874Z,15.14
2023-05-01T19:15:07.529Z,15.23
2023-05-01T19:17:39.088Z,15.18
2023-05-01T19:20:11.048Z,15.17
2023-05-01T19:22:42.445Z,15.19
2023-05-01T19:25:13.415Z,15.19
2023-05-01T19:27:44.879Z,15.22
2023-05-01T19:30:16.920Z,15.22
2023-05-01T19:32:48.662Z,15.38
2023-05-01T19:35:20.084Z,15.31
2023-05-01T19:37:58.962Z,15.32
2023-05-01T19:40:30.516Z,15.39
2023-05-01T19:43:02.080Z,15.51
2023-05-01T19:45:33.576Z,15.76
2023-05-01T19:48:04.876Z,15.75
2023-05-01T19:50:36.621Z,15.72
2023-05-01T19:53:08.715Z,15.79
2023-05-01T19:55:41.540Z,15.85
2023-05-01T19:58:12.925Z,15.99
2023-05-01T20:00:44.196Z,16.03
2023-05-01T20:03:17.133Z,16.15
2023-05-01T20:05:48.795Z,16.28
2023-05-01T20:08:20.294Z,16.34
2023-05-01T20:10:51.988Z,16.44
2023-05-01T20:13:23.329Z,16.59
2023-05-01T20:15:55.550Z,16.62
2023-05-01T20:18:29.102Z,16.78
2023-05-01T20:21:00.867Z,17.10
2023-05-01T20:23:32.518Z,18.15
2023-05-01T20:26:03.921Z,19.64
2023-05-01T20:28:35.139Z,20.27
2023-05-01T20:31:06.946Z,20.34
2023-05-01T20:33:38.176Z,20.73
2023-05-01T20:36:10.304Z,20.61
2023-05-01T20:38:45.072Z,20.66
2023-05-01T20:41:17.088Z,20.94
2023-05-01T20:43:48.705Z,21.13
2023-05-01T20:46:20.321Z,21.09
2023-05-01T20:48:51.670Z,20.89
2023-05-01T20:51:23.467Z,21.16
2023-05-01T20:53:56.091Z,20.96
2023-05-01T20:56:27.527Z,20.94
2023-05-01T20:58:59.000Z,20.73
2023-05-01T21:01:33.755Z,20.61
2023-05-01T21:04:07.619Z,20.71
2023-05-01T21:06:39.249Z,21.17
2023-05-01T21:09:12.455Z,20.87
2023-05-01T21:11:43.715Z,20.90
2023-05-01T21:14:14.883Z,21.50
2023-05-01T21:16:46.409Z,22.20
2023-05-01T21:19:17.519Z,21.88
2023-05-01T21:21:48.682Z,22.04
2023-05-01T21:24:24.997Z,22.69
2023-05-01T21:26:56.435Z,22.64
2023-05-01T21:29:27.912Z,22.77
2023-05-01T21:31:59.308Z,23.11
2023-05-01T21:34:30.305Z,22.98
2023-05-01T21:37:01.525Z,23.06
2023-05-01T21:39:33.769Z,23.00
2023-05-01T21:42:06.415Z,23.36
2023-05-01T21:44:38.165Z,23.63
2023-05-01T21:47:10.115Z,24.30
2023-05-01T21:49:42.512Z,23.60
2023-05-01T21:52:16.368Z,23.38
2023-05-01T21:54:47.314Z,23.70
2023-05-01T21:57:18.860Z,24.76
2023-05-01T21:59:50.224Z,24.18
2023-05-01T22:02:21.780Z,23.79
2023-05-01T22:04:56.518Z,23.98
2023-05-01T22:07:28.321Z,24.52
2023-05-01T22:10:00.640Z,23.93
2023-05-01T22:15:05.871Z,25.24
2023-05-01T22:17:37.711Z,25.09
2023-05-01T22:20:08.643Z,24.37
2023-05-01T22:22:41.140Z,24.80
2023-05-01T22:25:13.615Z,24.78
2023-05-01T22:27:44.972Z,24.55
2023-05-01T22:30:15.762Z,23.43
2023-05-01T22:32:47.250Z,24.46
2023-05-01T22:35:18.828Z,23.24
2023-05-01T22:37:50.327Z,24.04
2023-05-01T22:40:21.579Z,24.12
2023-05-01T22:42:52.155Z,24.50
2023-05-01T22:45:23.311Z,23.47
2023-05-01T22:47:54.380Z,23.63
2023-05-01T22:50:25.900Z,24.17
2023-05-01T22:52:57.196Z,24.31
2023-05-01T22:55:28.342Z,24.09
2023-05-01T22:58:00.737Z,24.13
2023-05-01T23:00:31.507Z,24.54
2023-05-01T23:03:03.428Z,23.61
2023-05-01T23:05:35.282Z,23.93
2023-05-01T23:08:06.378Z,24.15
2023-05-01T23:10:37.366Z,24.17
2023-05-01T23:13:18.391Z,24.24
2023-05-01T23:15:51.565Z,24.42
2023-05-01T23:18:28.009Z,23.85
2023-05-01T23:20:59.484Z,24.08
2023-05-01T23:23:31.663Z,23.47
2023-05-01T23:26:02.878Z,23.51
2023-05-01T23:28:34.841Z,23.63
2023-05-01T23:31:06.732Z,23.18
2023-05-01T23:33:39.501Z,23.23
2023-05-01T23:36:13.951Z,24.17
2023-05-01T23:38:45.565Z,24.69
2023-05-01T23:41:17.086Z,25.39
2023-05-01T23:43:49.578Z,24.50
2023-05-01T23:46:21.183Z,24.24
2023-05-01T23:48:52.970Z,24.67
2023-05-01T23:51:24.323Z,25.25
2023-05-01T23:53:55.757Z,23.75
2023-05-01T23:56:27.009Z,24.55
2023-05-01T23:58:57.645Z,24.09
